Wayne, NJ

7:39 PM EST on February 27, 2015 (GMT -0500)
Old Homestead | Change Station
CLOSE
Current Station
Personal Weather Station
Location: Wayne, NJ
Elevation: 436 ft
Nearby Weather Stations

Elev 436 ft 40.96 °N, 74.25 °W | Updated 6 seconds ago

Clear
Clear
20.8 °F
Feels Like 21 °F
N
0.0
Wind Variable Wind from SSW
Gusts 1.0 mph

Today
High -- | Low -- °F
--% Chance of Precip.
Yesterday
High -- | Low -- °F
Precip. -- in
6:34 AM 5:45 PM
Waxing Gibbous, 73% visible
Pressure 30.52 in
Visibility 10.0 miles
Clouds Clear
Windchill 21 °F
Dew Point 4 °F
Humidity 48%
Rainfall 0.00 in
Snow Depth Not available.
UV 0 out of 12
Pollen .50 out of 12
Air Quality Not available.
Flu Activity Not available.
METAR KCDW 272353Z AUTO 32006KT 10SM CLR M04/M17 A3049 RMK AO2 SLP334 60000 T10441172 11022 21044 53028 TSNO

More Conditions Fewer Conditions

Pressure 30.52 in
Visibility 10.0 miles
Clouds Clear
Windchill 21 °F
Dew Point 4 °F
Humidity 48%
Rainfall 0.00 in
Snow Depth Not available.
UV 0 out of 12
Pollen .50 out of 12
Air Quality Not available.
Flu Activity Not available.
METAR KCDW 272353Z AUTO 32006KT 10SM CLR M04/M17 A3049 RMK AO2 SLP334 60000 T10441172 11022 21044 53028 TSNO

More Conditions Fewer Conditions

10-Day Weather Forecast

Almanac

Astronomy

Feb. 27, 2015 Rise Set
Actual Time
Civil Twilight
Nautical Twilight
Astronomical Twilight
Moon
Length of Visible Light
Length of Day
Tomorrow will be .
, % of the Moon is Illuminated

Today's Extremes

State Highs State Lows

Community

WunderPhotos

Upload Photos

1,800,904 photos uploaded!

WunderBlogs® & News

Nearby

Air Quality

  Air Quality AQ Index Pollutant
Not available.

Snow Depth

Station Depth Elevation

Earthquake Activity

City Distance Mag. Time & Date
Minimum magnitude displayed is 2.5.

Coastal Water Temperatures

Place Temperature

Nearby Weather Stations